Aérodrome :
LOGIN :

S'inscrire | Disclaimer

   EN    FR    IT 

 










Légende :    VFR   VFR Marginal   IFR   IFR Intensif   IFR Très Intensif
Visi : 
Plafond : 
>= 8 km
>= 3000ft
5 à 8 km
1000 à 3000 ft
1500m à 5 km
500 à 1000 ft
800 à 1500m
200 à 500 ft
< 800m
< 200 ft
Symboles :   Orages  Brouillard  Fortes neiges  Fortes précipitations  Vent > 20 kt
SIGMETs :   Divers  Orages  Givrage  Turbulence  Onde Orograph.  Cendres Volcan.







- Altitude de l'aérodrome : 1830 ft


EBLB - Butgenbach Elsenborn

DERNIER METAR :
  • 011725Z AUTO 19008KT 5000 -RA OVC005/// 02/02 Q1000 YLO

METARs EXPIRÉS :
  • 011655Z AUTO 20007KT 5000 -RA OVC006/// 02/02 Q1001 YLO
  • 011648Z AUTO 20007KT 6000 -RA OVC006/// 02/02 Q1001 YLO
  • 011625Z AUTO 21008KT 8000 -RA OVC007/// 02/02 Q1001 GRN
  • 011555Z AUTO 23010KT 9999 -RA BKN010/// OVC040/// 03/02 Q1001 GRN
  • 011525Z AUTO 22009KT 9999 -RA OVC010/// 03/02 Q1002 GRN
  • 011455Z AUTO 23008KT 9999 OVC007/// 03/02 Q1002 GRN

Prévision TAF périmée.
Pas de NOTAMs connus pour ce terrain.



MET'MAP, la Météo Aéronautique d'un coup d'oeil ! - Copyright ORBIFLY Décembre 2007 - Disclaimer

ORBIFLY MET'MAP TEAM :

Programmation & Développement : Alexandra Zaïnal
Conception & Développement : Baudouin d'Aumeries
Co-Programmation & Développement : Marc-Olivier Méhu
Soutien technique & logistique : Manuel Goepfert

Contact : metmap@orbifly.com




SOURCES & CREDITS :

   NOAA